sensor_id;sensor_type;location;lat;lon;timestamp;noise_LAeq;noise_LA_min;noise_LA_max;noise_LA01;noise_LA95
186;Laerm;55473;48.800;9.002;2023-04-15T00:01:28;38.19;35.53;43.02;;
186;Laerm;55473;48.800;9.002;2023-04-15T00:03:54;38.61;35.63;43.71;;
186;Laerm;55473;48.800;9.002;2023-04-15T00:06:21;38.98;35.69;47.27;;
186;Laerm;55473;48.800;9.002;2023-04-15T00:08:48;38.53;35.75;44.06;;
186;Laerm;55473;48.800;9.002;2023-04-15T00:11:18;38.98;35.44;45.96;;
186;Laerm;55473;48.800;9.002;2023-04-15T00:13:45;39.18;34.60;42.90;;
186;Laerm;55473;48.800;9.002;2023-04-15T00:16:11;39.91;36.83;46.00;;
186;Laerm;55473;48.800;9.002;2023-04-15T00:18:37;45.72;37.36;57.16;;
186;Laerm;55473;48.800;9.002;2023-04-15T00:21:04;40.27;36.34;49.38;;
186;Laerm;55473;48.800;9.002;2023-04-15T00:23:30;40.85;36.02;55.02;;
186;Laerm;55473;48.800;9.002;2023-04-15T00:25:56;38.32;35.22;42.78;;
186;Laerm;55473;48.800;9.002;2023-04-15T00:28:22;39.75;36.00;47.85;;
186;Laerm;55473;48.800;9.002;2023-04-15T00:30:49;38.73;35.76;45.84;;
186;Laerm;55473;48.800;9.002;2023-04-15T00:33:15;38.66;35.56;56.42;;
186;Laerm;55473;48.800;9.002;2023-04-15T00:35:41;37.68;35.07;40.84;;
186;Laerm;55473;48.800;9.002;2023-04-15T00:38:07;38.52;35.43;43.65;;
186;Laerm;55473;48.800;9.002;2023-04-15T00:40:33;39.01;36.17;46.10;;
186;Laerm;55473;48.800;9.002;2023-04-15T00:43:00;42.04;35.93;55.38;;
186;Laerm;55473;48.800;9.002;2023-04-15T00:45:26;43.78;36.66;56.79;;
186;Laerm;55473;48.800;9.002;2023-04-15T00:47:53;40.82;36.35;54.91;;
186;Laerm;55473;48.800;9.002;2023-04-15T00:50:19;40.74;36.96;50.20;;
186;Laerm;55473;48.800;9.002;2023-04-15T00:52:45;41.03;36.20;55.01;;
186;Laerm;55473;48.800;9.002;2023-04-15T00:55:11;44.61;35.87;67.96;;
186;Laerm;55473;48.800;9.002;2023-04-15T00:57:38;40.23;35.39;61.49;;
186;Laerm;55473;48.800;9.002;2023-04-15T01:00:06;39.19;36.25;44.53;;
186;Laerm;55473;48.800;9.002;2023-04-15T01:02:37;39.03;35.99;43.53;;
186;Laerm;55473;48.800;9.002;2023-04-15T01:05:04;39.59;36.01;49.76;;
186;Laerm;55473;48.800;9.002;2023-04-15T01:07:30;39.16;35.21;43.22;;
186;Laerm;55473;48.800;9.002;2023-04-15T01:09:57;43.28;36.22;62.56;;
186;Laerm;55473;48.800;9.002;2023-04-15T01:12:26;40.02;35.82;57.80;;
186;Laerm;55473;48.800;9.002;2023-04-15T01:14:54;38.97;35.78;44.72;;
186;Laerm;55473;48.800;9.002;2023-04-15T01:17:20;45.76;35.21;59.85;;
186;Laerm;55473;48.800;9.002;2023-04-15T01:19:46;41.92;37.12;52.07;;
186;Laerm;55473;48.800;9.002;2023-04-15T01:22:12;40.29;36.43;45.27;;
186;Laerm;55473;48.800;9.002;2023-04-15T01:24:39;39.13;35.77;43.75;;
186;Laerm;55473;48.800;9.002;2023-04-15T01:27:06;38.93;35.78;43.63;;
186;Laerm;55473;48.800;9.002;2023-04-15T01:29:36;38.81;35.98;42.04;;
186;Laerm;55473;48.800;9.002;2023-04-15T01:32:02;40.18;36.43;64.60;;
186;Laerm;55473;48.800;9.002;2023-04-15T01:34:29;39.65;35.91;50.25;;
186;Laerm;55473;48.800;9.002;2023-04-15T01:36:55;38.46;35.27;45.33;;
186;Laerm;55473;48.800;9.002;2023-04-15T01:39:21;39.19;35.59;46.96;;
186;Laerm;55473;48.800;9.002;2023-04-15T01:41:47;38.71;35.50;47.80;;
186;Laerm;55473;48.800;9.002;2023-04-15T01:44:13;43.43;36.25;58.18;;
186;Laerm;55473;48.800;9.002;2023-04-15T01:46:39;44.07;37.12;55.63;;
186;Laerm;55473;48.800;9.002;2023-04-15T01:49:05;39.43;36.04;45.92;;
186;Laerm;55473;48.800;9.002;2023-04-15T01:51:32;39.43;36.02;45.35;;
186;Laerm;55473;48.800;9.002;2023-04-15T01:53:58;41.11;35.50;50.30;;
186;Laerm;55473;48.800;9.002;2023-04-15T01:56:24;38.33;35.14;45.20;;
186;Laerm;55473;48.800;9.002;2023-04-15T01:58:50;38.69;35.47;45.30;;
186;Laerm;55473;48.800;9.002;2023-04-15T02:01:16;38.91;35.40;45.95;;
186;Laerm;55473;48.800;9.002;2023-04-15T02:03:44;39.26;35.48;43.79;;
186;Laerm;55473;48.800;9.002;2023-04-15T02:06:11;38.81;35.79;49.15;;
186;Laerm;55473;48.800;9.002;2023-04-15T02:08:36;38.57;35.11;42.66;;
186;Laerm;55473;48.800;9.002;2023-04-15T02:11:03;38.91;35.40;45.72;;
186;Laerm;55473;48.800;9.002;2023-04-15T02:13:29;39.34;36.05;44.84;;
186;Laerm;55473;48.800;9.002;2023-04-15T02:15:55;39.12;35.43;46.37;;
186;Laerm;55473;48.800;9.002;2023-04-15T02:18:21;42.89;35.85;54.24;;
186;Laerm;55473;48.800;9.002;2023-04-15T02:20:47;39.99;35.96;52.44;;
186;Laerm;55473;48.800;9.002;2023-04-15T02:23:14;40.87;35.43;51.82;;
186;Laerm;55473;48.800;9.002;2023-04-15T02:25:40;40.67;35.47;53.20;;
186;Laerm;55473;48.800;9.002;2023-04-15T02:28:06;40.80;35.90;53.34;;
186;Laerm;55473;48.800;9.002;2023-04-15T02:30:33;39.86;35.02;53.72;;
186;Laerm;55473;48.800;9.002;2023-04-15T02:33:00;40.10;35.50;54.28;;
186;Laerm;55473;48.800;9.002;2023-04-15T02:35:26;40.18;35.45;52.96;;
186;Laerm;55473;48.800;9.002;2023-04-15T02:37:52;40.67;35.22;53.10;;
186;Laerm;55473;48.800;9.002;2023-04-15T02:40:18;40.79;35.13;52.77;;
186;Laerm;55473;48.800;9.002;2023-04-15T02:42:44;41.44;36.12;52.49;;
186;Laerm;55473;48.800;9.002;2023-04-15T02:45:10;47.11;36.53;58.24;;
186;Laerm;55473;48.800;9.002;2023-04-15T02:47:38;42.71;36.55;53.56;;
186;Laerm;55473;48.800;9.002;2023-04-15T02:50:10;42.10;36.91;55.02;;
186;Laerm;55473;48.800;9.002;2023-04-15T02:52:42;41.67;36.91;53.89;;
186;Laerm;55473;48.800;9.002;2023-04-15T02:55:09;40.72;35.80;53.65;;
186;Laerm;55473;48.800;9.002;2023-04-15T02:57:35;40.32;35.26;54.30;;
186;Laerm;55473;48.800;9.002;2023-04-15T03:00:03;40.83;36.09;55.79;;
186;Laerm;55473;48.800;9.002;2023-04-15T03:02:34;42.02;35.67;55.14;;
186;Laerm;55473;48.800;9.002;2023-04-15T03:05:01;42.60;35.82;52.92;;
186;Laerm;55473;48.800;9.002;2023-04-15T03:07:27;43.18;37.34;53.96;;
186;Laerm;55473;48.800;9.002;2023-04-15T03:09:53;42.63;36.28;53.61;;
186;Laerm;55473;48.800;9.002;2023-04-15T03:12:19;44.10;36.63;55.05;;
186;Laerm;55473;48.800;9.002;2023-04-15T03:14:45;44.31;37.46;56.15;;
186;Laerm;55473;48.800;9.002;2023-04-15T03:17:11;49.79;37.91;67.61;;
186;Laerm;55473;48.800;9.002;2023-04-15T03:19:37;54.92;37.18;70.93;;
186;Laerm;55473;48.800;9.002;2023-04-15T03:22:03;53.20;37.09;66.44;;
186;Laerm;55473;48.800;9.002;2023-04-15T03:24:28;53.39;37.20;66.27;;
186;Laerm;55473;48.800;9.002;2023-04-15T03:26:56;52.82;37.95;68.64;;
186;Laerm;55473;48.800;9.002;2023-04-15T03:29:23;53.40;39.00;67.30;;
186;Laerm;55473;48.800;9.002;2023-04-15T03:31:49;53.68;38.48;68.39;;
186;Laerm;55473;48.800;9.002;2023-04-15T03:34:15;53.86;39.02;67.07;;
186;Laerm;55473;48.800;9.002;2023-04-15T03:36:41;52.63;39.43;68.87;;
186;Laerm;55473;48.800;9.002;2023-04-15T03:39:06;54.30;38.60;71.27;;
186;Laerm;55473;48.800;9.002;2023-04-15T03:41:33;59.24;40.95;74.65;;
186;Laerm;55473;48.800;9.002;2023-04-15T03:43:59;60.43;40.21;76.82;;
186;Laerm;55473;48.800;9.002;2023-04-15T03:46:25;55.86;40.76;71.71;;
186;Laerm;55473;48.800;9.002;2023-04-15T03:48:51;53.72;41.84;66.40;;
186;Laerm;55473;48.800;9.002;2023-04-15T03:51:17;55.83;40.45;70.49;;
186;Laerm;55473;48.800;9.002;2023-04-15T03:53:43;57.01;38.20;71.05;;
186;Laerm;55473;48.800;9.002;2023-04-15T03:56:08;58.48;39.07;69.69;;
186;Laerm;55473;48.800;9.002;2023-04-15T03:58:35;60.10;41.11;70.97;;
186;Laerm;55473;48.800;9.002;2023-04-15T04:01:01;59.26;42.94;70.56;;
186;Laerm;55473;48.800;9.002;2023-04-15T04:03:27;59.34;42.83;70.33;;
186;Laerm;55473;48.800;9.002;2023-04-15T04:05:53;58.67;41.83;71.46;;
186;Laerm;55473;48.800;9.002;2023-04-15T04:08:19;55.31;41.84;68.89;;
186;Laerm;55473;48.800;9.002;2023-04-15T04:10:46;53.40;40.60;64.62;;
186;Laerm;55473;48.800;9.002;2023-04-15T04:13:12;54.43;41.33;64.73;;
186;Laerm;55473;48.800;9.002;2023-04-15T04:15:38;57.46;42.17;71.27;;
186;Laerm;55473;48.800;9.002;2023-04-15T04:18:04;58.83;41.96;68.60;;
186;Laerm;55473;48.800;9.002;2023-04-15T04:20:30;60.79;40.24;78.43;;
186;Laerm;55473;48.800;9.002;2023-04-15T04:22:59;59.54;39.45;77.85;;
186;Laerm;55473;48.800;9.002;2023-04-15T04:25:25;48.24;38.35;62.07;;
186;Laerm;55473;48.800;9.002;2023-04-15T04:27:51;54.29;39.46;72.88;;
186;Laerm;55473;48.800;9.002;2023-04-15T04:30:17;48.41;39.33;66.23;;
186;Laerm;55473;48.800;9.002;2023-04-15T04:32:43;48.35;38.49;63.28;;
186;Laerm;55473;48.800;9.002;2023-04-15T04:35:09;49.40;39.63;59.92;;
186;Laerm;55473;48.800;9.002;2023-04-15T04:37:36;45.27;39.02;57.83;;
186;Laerm;55473;48.800;9.002;2023-04-15T04:40:02;44.87;39.51;59.49;;
186;Laerm;55473;48.800;9.002;2023-04-15T04:42:28;47.43;40.45;58.71;;
186;Laerm;55473;48.800;9.002;2023-04-15T04:44:54;53.97;40.52;68.62;;
186;Laerm;55473;48.800;9.002;2023-04-15T04:47:19;56.07;41.18;74.93;;
186;Laerm;55473;48.800;9.002;2023-04-15T04:49:45;48.75;39.98;67.90;;
186;Laerm;55473;48.800;9.002;2023-04-15T04:52:11;56.75;39.48;75.95;;
186;Laerm;55473;48.800;9.002;2023-04-15T04:54:37;52.79;39.37;69.09;;
186;Laerm;55473;48.800;9.002;2023-04-15T04:57:03;50.14;39.64;65.11;;
186;Laerm;55473;48.800;9.002;2023-04-15T04:59:29;52.45;39.24;67.99;;
186;Laerm;55473;48.800;9.002;2023-04-15T05:01:55;50.81;38.58;65.81;;
186;Laerm;55473;48.800;9.002;2023-04-15T05:04:21;47.04;39.62;67.42;;
186;Laerm;55473;48.800;9.002;2023-04-15T05:06:47;46.65;37.35;60.86;;
186;Laerm;55473;48.800;9.002;2023-04-15T05:09:13;44.56;38.25;59.62;;
186;Laerm;55473;48.800;9.002;2023-04-15T05:11:39;53.29;39.02;69.14;;
186;Laerm;55473;48.800;9.002;2023-04-15T05:14:05;51.14;39.00;64.19;;
186;Laerm;55473;48.800;9.002;2023-04-15T05:16:30;49.29;39.58;70.90;;
186;Laerm;55473;48.800;9.002;2023-04-15T05:18:56;48.99;39.85;62.96;;
186;Laerm;55473;48.800;9.002;2023-04-15T05:21:22;47.54;38.36;60.74;;
186;Laerm;55473;48.800;9.002;2023-04-15T05:23:48;48.51;38.82;65.25;;
186;Laerm;55473;48.800;9.002;2023-04-15T05:26:14;51.72;38.80;68.99;;
186;Laerm;55473;48.800;9.002;2023-04-15T05:28:40;44.74;38.88;59.56;;
186;Laerm;55473;48.800;9.002;2023-04-15T05:31:06;48.30;38.28;71.98;;
186;Laerm;55473;48.800;9.002;2023-04-15T05:33:33;44.80;37.90;66.93;;
186;Laerm;55473;48.800;9.002;2023-04-15T05:35:59;45.05;38.27;68.12;;
186;Laerm;55473;48.800;9.002;2023-04-15T05:38:25;43.92;38.73;51.75;;
186;Laerm;55473;48.800;9.002;2023-04-15T05:40:51;48.03;40.10;68.37;;
186;Laerm;55473;48.800;9.002;2023-04-15T05:43:17;45.31;39.24;59.90;;
186;Laerm;55473;48.800;9.002;2023-04-15T05:45:43;48.29;39.74;58.83;;
186;Laerm;55473;48.800;9.002;2023-04-15T05:48:09;53.43;40.63;73.52;;
186;Laerm;55473;48.800;9.002;2023-04-15T05:50:35;48.44;39.21;64.89;;
186;Laerm;55473;48.800;9.002;2023-04-15T05:53:01;46.98;39.49;66.15;;
186;Laerm;55473;48.800;9.002;2023-04-15T05:55:27;48.01;40.84;62.75;;
186;Laerm;55473;48.800;9.002;2023-04-15T05:57:53;45.45;39.96;58.81;;
186;Laerm;55473;48.800;9.002;2023-04-15T06:00:18;46.82;39.97;54.81;;
186;Laerm;55473;48.800;9.002;2023-04-15T06:02:44;48.61;40.34;61.53;;
186;Laerm;55473;48.800;9.002;2023-04-15T06:05:10;45.98;40.03;60.69;;
186;Laerm;55473;48.800;9.002;2023-04-15T06:07:37;51.83;39.42;72.00;;
186;Laerm;55473;48.800;9.002;2023-04-15T06:10:04;51.64;40.09;69.78;;
186;Laerm;55473;48.800;9.002;2023-04-15T06:12:30;50.16;40.21;62.91;;
186;Laerm;55473;48.800;9.002;2023-04-15T06:14:56;52.05;40.26;71.44;;
186;Laerm;55473;48.800;9.002;2023-04-15T06:17:22;52.28;40.79;68.13;;
186;Laerm;55473;48.800;9.002;2023-04-15T06:19:48;50.47;40.91;65.69;;
186;Laerm;55473;48.800;9.002;2023-04-15T06:22:16;49.14;39.35;62.52;;
186;Laerm;55473;48.800;9.002;2023-04-15T06:24:42;51.14;39.92;68.73;;
186;Laerm;55473;48.800;9.002;2023-04-15T06:27:08;48.22;38.88;64.47;;
186;Laerm;55473;48.800;9.002;2023-04-15T06:29:34;46.45;38.39;65.88;;
186;Laerm;55473;48.800;9.002;2023-04-15T06:32:00;49.30;39.80;69.78;;
186;Laerm;55473;48.800;9.002;2023-04-15T06:34:26;47.16;39.29;62.41;;
186;Laerm;55473;48.800;9.002;2023-04-15T06:36:52;43.08;39.30;56.42;;
186;Laerm;55473;48.800;9.002;2023-04-15T06:39:19;43.94;38.92;59.38;;
186;Laerm;55473;48.800;9.002;2023-04-15T06:41:45;47.55;39.36;67.13;;
186;Laerm;55473;48.800;9.002;2023-04-15T06:44:11;48.90;40.06;63.69;;
186;Laerm;55473;48.800;9.002;2023-04-15T06:46:37;53.33;38.67;70.57;;
186;Laerm;55473;48.800;9.002;2023-04-15T06:49:03;50.25;39.39;63.32;;
186;Laerm;55473;48.800;9.002;2023-04-15T06:51:29;53.16;40.53;72.02;;
186;Laerm;55473;48.800;9.002;2023-04-15T06:53:56;50.90;38.87;70.65;;
186;Laerm;55473;48.800;9.002;2023-04-15T06:56:23;52.00;39.25;69.28;;
186;Laerm;55473;48.800;9.002;2023-04-15T06:58:49;50.92;38.01;68.53;;
186;Laerm;55473;48.800;9.002;2023-04-15T07:01:15;44.62;39.29;52.74;;
186;Laerm;55473;48.800;9.002;2023-04-15T07:03:41;47.09;39.75;59.91;;
186;Laerm;55473;48.800;9.002;2023-04-15T07:06:07;48.23;38.81;66.84;;
186;Laerm;55473;48.800;9.002;2023-04-15T07:08:34;44.52;39.28;55.02;;
186;Laerm;55473;48.800;9.002;2023-04-15T07:11:00;48.55;38.37;63.66;;
186;Laerm;55473;48.800;9.002;2023-04-15T07:13:29;47.52;38.25;65.69;;
186;Laerm;55473;48.800;9.002;2023-04-15T07:15:56;48.48;38.93;63.49;;
186;Laerm;55473;48.800;9.002;2023-04-15T07:18:21;51.73;37.62;69.32;;
186;Laerm;55473;48.800;9.002;2023-04-15T07:20:47;48.85;37.14;65.49;;
186;Laerm;55473;48.800;9.002;2023-04-15T07:23:13;50.76;35.27;64.87;;
186;Laerm;55473;48.800;9.002;2023-04-15T07:25:39;45.88;37.51;60.77;;
186;Laerm;55473;48.800;9.002;2023-04-15T07:28:05;43.57;36.34;57.55;;
186;Laerm;55473;48.800;9.002;2023-04-15T07:30:31;46.08;38.04;67.60;;
186;Laerm;55473;48.800;9.002;2023-04-15T07:32:58;47.25;35.85;59.63;;
186;Laerm;55473;48.800;9.002;2023-04-15T07:35:24;50.54;36.72;70.74;;
186;Laerm;55473;48.800;9.002;2023-04-15T07:37:51;56.10;36.33;74.52;;
186;Laerm;55473;48.800;9.002;2023-04-15T07:40:17;49.77;37.05;66.27;;
186;Laerm;55473;48.800;9.002;2023-04-15T07:42:43;49.52;36.74;62.00;;
186;Laerm;55473;48.800;9.002;2023-04-15T07:45:09;47.87;36.82;69.55;;
186;Laerm;55473;48.800;9.002;2023-04-15T07:47:36;48.27;36.32;63.23;;
186;Laerm;55473;48.800;9.002;2023-04-15T07:50:01;46.58;36.82;62.39;;
186;Laerm;55473;48.800;9.002;2023-04-15T07:52:27;50.41;39.26;63.24;;
186;Laerm;55473;48.800;9.002;2023-04-15T07:54:53;46.90;36.68;65.77;;
186;Laerm;55473;48.800;9.002;2023-04-15T07:57:19;45.43;36.60;61.99;;
186;Laerm;55473;48.800;9.002;2023-04-15T07:59:45;50.47;36.86;65.07;;
186;Laerm;55473;48.800;9.002;2023-04-15T08:02:11;46.07;36.10;63.55;;
186;Laerm;55473;48.800;9.002;2023-04-15T08:04:37;51.01;36.83;71.22;;
186;Laerm;55473;48.800;9.002;2023-04-15T08:07:03;53.08;38.01;75.96;;
186;Laerm;55473;48.800;9.002;2023-04-15T08:09:29;48.55;36.76;68.03;;
186;Laerm;55473;48.800;9.002;2023-04-15T08:11:55;46.34;35.86;64.87;;
186;Laerm;55473;48.800;9.002;2023-04-15T08:14:23;47.20;38.67;66.60;;
186;Laerm;55473;48.800;9.002;2023-04-15T08:16:48;54.59;35.42;73.01;;
186;Laerm;55473;48.800;9.002;2023-04-15T08:19:14;47.48;39.45;59.01;;
186;Laerm;55473;48.800;9.002;2023-04-15T08:21:41;45.78;37.68;61.84;;
186;Laerm;55473;48.800;9.002;2023-04-15T08:24:06;42.22;35.93;54.59;;
186;Laerm;55473;48.800;9.002;2023-04-15T08:26:32;43.74;37.31;54.21;;
186;Laerm;55473;48.800;9.002;2023-04-15T08:28:58;51.15;37.80;66.18;;
186;Laerm;55473;48.800;9.002;2023-04-15T08:31:26;47.78;37.06;61.02;;
186;Laerm;55473;48.800;9.002;2023-04-15T08:33:56;47.14;37.28;58.72;;
186;Laerm;55473;48.800;9.002;2023-04-15T08:36:22;51.26;36.64;64.44;;
186;Laerm;55473;48.800;9.002;2023-04-15T08:38:48;45.84;35.99;60.14;;
186;Laerm;55473;48.800;9.002;2023-04-15T08:41:21;48.00;37.48;64.72;;
186;Laerm;55473;48.800;9.002;2023-04-15T08:44:00;54.77;36.03;65.82;;
186;Laerm;55473;48.800;9.002;2023-04-15T08:46:27;48.03;37.18;64.94;;
186;Laerm;55473;48.800;9.002;2023-04-15T08:48:57;50.02;39.42;67.00;;
186;Laerm;55473;48.800;9.002;2023-04-15T08:51:24;42.95;36.77;59.39;;
186;Laerm;55473;48.800;9.002;2023-04-15T08:53:51;46.15;39.00;63.51;;
186;Laerm;55473;48.800;9.002;2023-04-15T08:56:18;55.55;39.30;69.44;;
186;Laerm;55473;48.800;9.002;2023-04-15T08:58:50;49.38;40.76;66.73;;
186;Laerm;55473;48.800;9.002;2023-04-15T09:01:16;46.41;39.40;59.42;;
186;Laerm;55473;48.800;9.002;2023-04-15T09:03:43;50.44;39.47;68.23;;
186;Laerm;55473;48.800;9.002;2023-04-15T09:06:10;45.17;39.34;56.60;;
186;Laerm;55473;48.800;9.002;2023-04-15T09:08:36;46.80;39.10;65.16;;
186;Laerm;55473;48.800;9.002;2023-04-15T09:11:02;43.46;36.97;61.62;;
186;Laerm;55473;48.800;9.002;2023-04-15T09:13:28;46.18;38.40;60.08;;
186;Laerm;55473;48.800;9.002;2023-04-15T09:15:55;44.64;37.21;60.19;;
186;Laerm;55473;48.800;9.002;2023-04-15T09:18:31;46.29;36.01;57.79;;
186;Laerm;55473;48.800;9.002;2023-04-15T09:21:13;48.60;38.53;62.44;;
186;Laerm;55473;48.800;9.002;2023-04-15T09:23:57;49.31;38.46;72.38;;
186;Laerm;55473;48.800;9.002;2023-04-15T09:26:31;47.52;38.23;71.84;;
186;Laerm;55473;48.800;9.002;2023-04-15T09:29:09;49.29;38.62;64.65;;
186;Laerm;55473;48.800;9.002;2023-04-15T09:31:36;46.70;39.03;61.52;;
186;Laerm;55473;48.800;9.002;2023-04-15T09:34:02;50.92;38.53;63.91;;
186;Laerm;55473;48.800;9.002;2023-04-15T09:36:28;51.12;39.27;63.81;;
186;Laerm;55473;48.800;9.002;2023-04-15T09:38:59;50.49;37.62;68.38;;
186;Laerm;55473;48.800;9.002;2023-04-15T09:41:26;54.13;37.96;77.99;;
186;Laerm;55473;48.800;9.002;2023-04-15T09:43:53;47.49;39.60;64.31;;
186;Laerm;55473;48.800;9.002;2023-04-15T09:46:19;48.55;41.08;62.00;;
186;Laerm;55473;48.800;9.002;2023-04-15T09:48:45;54.67;39.47;67.79;;
186;Laerm;55473;48.800;9.002;2023-04-15T09:51:11;52.66;37.87;67.05;;
186;Laerm;55473;48.800;9.002;2023-04-15T09:53:37;50.60;39.28;64.05;;
186;Laerm;55473;48.800;9.002;2023-04-15T09:56:03;57.80;39.29;84.57;;
186;Laerm;55473;48.800;9.002;2023-04-15T09:58:34;51.96;41.16;66.00;;
186;Laerm;55473;48.800;9.002;2023-04-15T10:01:04;52.37;38.37;71.96;;
186;Laerm;55473;48.800;9.002;2023-04-15T10:03:34;53.82;41.94;70.96;;
186;Laerm;55473;48.800;9.002;2023-04-15T10:06:01;52.25;40.81;65.92;;
186;Laerm;55473;48.800;9.002;2023-04-15T10:08:31;54.48;37.20;77.81;;
186;Laerm;55473;48.800;9.002;2023-04-15T10:11:00;46.79;36.78;69.25;;
186;Laerm;55473;48.800;9.002;2023-04-15T10:13:30;47.28;37.25;63.92;;
186;Laerm;55473;48.800;9.002;2023-04-15T10:16:14;51.99;39.32;64.05;;
186;Laerm;55473;48.800;9.002;2023-04-15T10:18:43;50.71;39.27;71.05;;
186;Laerm;55473;48.800;9.002;2023-04-15T10:21:10;46.51;38.68;59.42;;
186;Laerm;55473;48.800;9.002;2023-04-15T10:23:39;44.41;37.34;63.37;;
186;Laerm;55473;48.800;9.002;2023-04-15T10:26:06;44.49;37.52;60.53;;
186;Laerm;55473;48.800;9.002;2023-04-15T10:28:34;46.09;38.00;61.43;;
186;Laerm;55473;48.800;9.002;2023-04-15T10:31:00;44.67;37.91;62.28;;
186;Laerm;55473;48.800;9.002;2023-04-15T10:33:28;46.54;37.95;60.50;;
186;Laerm;55473;48.800;9.002;2023-04-15T10:35:55;47.95;38.60;64.61;;
186;Laerm;55473;48.800;9.002;2023-04-15T10:38:38;55.12;37.86;73.01;;
186;Laerm;55473;48.800;9.002;2023-04-15T10:41:31;49.44;37.55;64.97;;
186;Laerm;55473;48.800;9.002;2023-04-15T10:44:00;49.60;40.72;62.89;;
186;Laerm;55473;48.800;9.002;2023-04-15T10:46:44;50.16;36.95;65.51;;
186;Laerm;55473;48.800;9.002;2023-04-15T10:49:14;47.62;37.92;60.68;;
186;Laerm;55473;48.800;9.002;2023-04-15T10:51:44;44.16;37.50;60.55;;
186;Laerm;55473;48.800;9.002;2023-04-15T11:00:00;46.76;37.76;61.14;;
186;Laerm;55473;48.800;9.002;2023-04-15T11:03:09;52.77;36.69;82.86;;
186;Laerm;55473;48.800;9.002;2023-04-15T11:05:51;51.73;38.49;67.80;;
186;Laerm;55473;48.800;9.002;2023-04-15T11:08:18;52.37;38.07;70.82;;
186;Laerm;55473;48.800;9.002;2023-04-15T11:15:42;44.33;37.25;54.80;;
186;Laerm;55473;48.800;9.002;2023-04-15T11:18:24;47.10;38.98;59.62;;
186;Laerm;55473;48.800;9.002;2023-04-15T11:21:00;42.96;36.56;62.62;;
186;Laerm;55473;48.800;9.002;2023-04-15T11:23:38;41.53;36.60;52.03;;
186;Laerm;55473;48.800;9.002;2023-04-15T11:26:07;45.32;37.23;68.78;;
186;Laerm;55473;48.800;9.002;2023-04-15T11:28:38;46.87;37.99;62.65;;
186;Laerm;55473;48.800;9.002;2023-04-15T11:31:14;47.43;37.66;63.42;;
186;Laerm;55473;48.800;9.002;2023-04-15T11:33:55;55.09;38.45;75.26;;
186;Laerm;55473;48.800;9.002;2023-04-15T11:36:28;50.26;38.28;67.31;;
186;Laerm;55473;48.800;9.002;2023-04-15T11:38:56;46.74;36.90;63.58;;
186;Laerm;55473;48.800;9.002;2023-04-15T11:41:23;49.16;37.49;66.83;;
186;Laerm;55473;48.800;9.002;2023-04-15T11:43:50;46.92;39.15;60.47;;
186;Laerm;55473;48.800;9.002;2023-04-15T11:46:17;42.84;37.40;52.72;;
186;Laerm;55473;48.800;9.002;2023-04-15T11:48:45;49.48;38.45;64.56;;
186;Laerm;55473;48.800;9.002;2023-04-15T11:51:13;43.15;38.23;55.93;;
186;Laerm;55473;48.800;9.002;2023-04-15T11:53:49;45.71;38.19;68.49;;
186;Laerm;55473;48.800;9.002;2023-04-15T11:56:19;51.12;37.60;65.03;;
186;Laerm;55473;48.800;9.002;2023-04-15T11:58:47;47.50;37.95;62.16;;
186;Laerm;55473;48.800;9.002;2023-04-15T12:01:15;49.80;37.48;64.49;;
186;Laerm;55473;48.800;9.002;2023-04-15T12:03:45;50.54;37.29;68.30;;
186;Laerm;55473;48.800;9.002;2023-04-15T12:06:21;48.75;38.99;64.11;;
186;Laerm;55473;48.800;9.002;2023-04-15T12:14:08;50.49;38.49;66.45;;
186;Laerm;55473;48.800;9.002;2023-04-15T12:16:42;48.15;38.51;61.88;;
186;Laerm;55473;48.800;9.002;2023-04-15T12:19:15;49.78;39.21;64.58;;
186;Laerm;55473;48.800;9.002;2023-04-15T12:21:46;47.33;37.98;62.57;;
186;Laerm;55473;48.800;9.002;2023-04-15T12:24:12;46.89;36.93;61.95;;
186;Laerm;55473;48.800;9.002;2023-04-15T12:26:55;45.89;38.21;65.86;;
186;Laerm;55473;48.800;9.002;2023-04-15T12:29:28;57.51;38.43;78.42;;
186;Laerm;55473;48.800;9.002;2023-04-15T12:31:56;51.03;38.22;65.67;;
186;Laerm;55473;48.800;9.002;2023-04-15T12:34:32;48.86;40.05;64.04;;
186;Laerm;55473;48.800;9.002;2023-04-15T12:37:01;46.63;38.49;65.00;;
186;Laerm;55473;48.800;9.002;2023-04-15T12:39:36;54.01;37.92;73.33;;
186;Laerm;55473;48.800;9.002;2023-04-15T12:42:04;56.53;38.25;85.28;;
186;Laerm;55473;48.800;9.002;2023-04-15T12:44:31;54.11;39.77;71.98;;
186;Laerm;55473;48.800;9.002;2023-04-15T12:46:58;59.63;39.05;88.19;;
186;Laerm;55473;48.800;9.002;2023-04-15T12:49:25;57.06;39.36;76.85;;
186;Laerm;55473;48.800;9.002;2023-04-15T12:51:54;53.68;38.29;73.05;;
186;Laerm;55473;48.800;9.002;2023-04-15T12:54:20;54.08;39.57;72.37;;
186;Laerm;55473;48.800;9.002;2023-04-15T12:56:49;52.38;39.03;69.85;;
186;Laerm;55473;48.800;9.002;2023-04-15T12:59:16;58.82;38.62;80.84;;
186;Laerm;55473;48.800;9.002;2023-04-15T13:01:44;56.15;39.96;75.06;;
186;Laerm;55473;48.800;9.002;2023-04-15T13:04:10;61.45;41.16;80.99;;
186;Laerm;55473;48.800;9.002;2023-04-15T13:06:36;58.57;41.54;76.91;;
186;Laerm;55473;48.800;9.002;2023-04-15T13:09:03;61.14;38.79;84.47;;
186;Laerm;55473;48.800;9.002;2023-04-15T13:11:31;59.92;37.95;83.43;;
186;Laerm;55473;48.800;9.002;2023-04-15T13:14:08;63.86;38.72;89.01;;
186;Laerm;55473;48.800;9.002;2023-04-15T13:16:36;57.28;40.53;77.95;;
186;Laerm;55473;48.800;9.002;2023-04-15T13:19:03;55.15;38.20;76.22;;
186;Laerm;55473;48.800;9.002;2023-04-15T13:21:30;52.71;38.36;74.63;;
186;Laerm;55473;48.800;9.002;2023-04-15T13:23:59;53.13;37.34;74.80;;
186;Laerm;55473;48.800;9.002;2023-04-15T13:26:26;48.24;37.60;64.96;;
186;Laerm;55473;48.800;9.002;2023-04-15T13:28:52;50.38;38.27;69.58;;
186;Laerm;55473;48.800;9.002;2023-04-15T13:31:18;48.58;38.08;67.96;;
186;Laerm;55473;48.800;9.002;2023-04-15T13:33:44;50.16;37.58;64.12;;
186;Laerm;55473;48.800;9.002;2023-04-15T13:36:10;47.11;38.33;63.54;;
186;Laerm;55473;48.800;9.002;2023-04-15T13:38:36;47.89;38.28;64.41;;
186;Laerm;55473;48.800;9.002;2023-04-15T13:41:02;46.40;37.21;61.90;;
186;Laerm;55473;48.800;9.002;2023-04-15T13:43:28;49.17;37.38;64.09;;
186;Laerm;55473;48.800;9.002;2023-04-15T13:45:54;57.54;39.54;79.58;;
186;Laerm;55473;48.800;9.002;2023-04-15T13:48:20;47.82;38.52;62.86;;
186;Laerm;55473;48.800;9.002;2023-04-15T13:50:46;47.77;36.94;64.07;;
186;Laerm;55473;48.800;9.002;2023-04-15T13:53:11;51.09;37.08;67.55;;
186;Laerm;55473;48.800;9.002;2023-04-15T13:55:38;48.29;38.22;65.05;;
186;Laerm;55473;48.800;9.002;2023-04-15T13:58:10;49.12;37.31;64.32;;
186;Laerm;55473;48.800;9.002;2023-04-15T14:00:36;47.38;37.09;64.20;;
186;Laerm;55473;48.800;9.002;2023-04-15T14:03:03;48.77;36.40;62.54;;
186;Laerm;55473;48.800;9.002;2023-04-15T14:05:29;46.63;37.76;65.87;;
186;Laerm;55473;48.800;9.002;2023-04-15T14:07:55;45.32;37.74;63.78;;
186;Laerm;55473;48.800;9.002;2023-04-15T14:10:21;43.12;37.36;57.80;;
186;Laerm;55473;48.800;9.002;2023-04-15T14:12:47;42.32;35.99;56.06;;
186;Laerm;55473;48.800;9.002;2023-04-15T14:15:13;45.07;37.76;60.00;;
186;Laerm;55473;48.800;9.002;2023-04-15T14:17:39;46.52;38.46;56.96;;
186;Laerm;55473;48.800;9.002;2023-04-15T14:20:08;45.60;36.45;60.93;;
186;Laerm;55473;48.800;9.002;2023-04-15T14:22:34;44.50;37.51;60.82;;
186;Laerm;55473;48.800;9.002;2023-04-15T14:25:00;44.23;36.60;58.63;;
186;Laerm;55473;48.800;9.002;2023-04-15T14:27:26;46.46;35.75;63.57;;